Flight Track Log - Related Links

Times and Time Zones

All times are in EDT time to prevent confusion due to time zone crossing. See the CSZ9916 flight status page for this flight to view local times or setup timezone preferences in your user account.

Time Position Orientation Groundspeed Altitude Reporting Facility
EDT Latitude Longitude Course Direction KTS MPH feet Rate Location/Type
Wed 12:01:00 PM 29.1885 107.2250 136° Southeast  Level Estimated
Wed 12:02:00 PM 29.1125 107.3080 136° Southeast  Level Estimated
Wed 12:03:00 PM 29.0364 107.3908 136° Southeast  Level Estimated
Wed 12:04:00 PM 28.9603 107.4734 136° Southeast  Level Estimated
Wed 12:05:00 PM 28.8841 107.5560 136° Southeast  Level Estimated
Wed 12:06:00 PM 28.8078 107.6385 137° Southeast  Level Estimated
Wed 12:07:00 PM 28.7315 107.7208 137° Southeast  Level Estimated
Wed 12:08:00 PM 28.6552 107.8030 137° Southeast  Level Estimated
Wed 12:09:00 PM 28.5788 107.8851 137° Southeast  Level Estimated
Wed 12:10:00 PM 28.5023 107.9671 137° Southeast  Level Estimated
Wed 12:11:00 PM 28.4258 108.0489 137° Southeast  Level Estimated
Wed 12:12:00 PM 28.3493 108.1307 137° Southeast  Level Estimated
Wed 12:13:00 PM 28.2727 108.2123 137° Southeast  Level Estimated
Wed 12:14:00 PM 28.1961 108.2937 137° Southeast  Level Estimated
Wed 12:15:00 PM 28.1194 108.3751 137° Southeast  Level Estimated
Wed 12:16:00 PM 28.0427 108.4564 137° Southeast  Level Estimated
Wed 12:17:00 PM 27.9659 108.5375 137° Southeast  Level Estimated
Wed 12:18:00 PM 27.8890 108.6186 137° Southeast  Level Estimated
Wed 12:19:00 PM 27.8122 108.6995 137° Southeast  Level Estimated
Wed 12:20:00 PM 27.7352 108.7803 137° Southeast  Level Estimated
Wed 12:21:00 PM 27.6583 108.8610 137° Southeast  Level Estimated
Wed 12:22:00 PM 27.5812 108.9415 137° Southeast  Level Estimated
Wed 12:23:00 PM 27.5042 109.0220 137° Southeast  Level Estimated
Wed 12:24:00 PM 27.4271 109.1023 137° Southeast  Level Estimated
Wed 12:25:00 PM 27.3499 109.1826 137° Southeast  Level Estimated
Wed 12:26:00 PM 27.2727 109.2627 137° Southeast  Level Estimated
Wed 12:27:00 PM 27.1955 109.3427 137° Southeast  Level Estimated
Wed 12:28:00 PM 27.1182 109.4226 137° Southeast  Level Estimated
Wed 12:29:00 PM 27.0408 109.5024 137° Southeast  Level Estimated
Wed 12:30:00 PM 26.9635 109.5821 137° Southeast  Level Estimated
Wed 12:31:00 PM 26.8860 109.6617 137° Southeast  Level Estimated
Wed 12:32:00 PM 26.8086 109.7411 138° Southeast  Level Estimated
Wed 12:33:00 PM 26.7310 109.8205 138° Southeast  Level Estimated
Wed 12:34:00 PM 26.6535 109.8997 138° Southeast  Level Estimated
Wed 12:35:00 PM 26.5759 109.9789 138° Southeast  Level Estimated
Wed 12:36:00 PM 26.4982 110.0579 138° Southeast  Level Estimated
Wed 12:37:00 PM 26.4205 110.1368 138° Southeast  Level Estimated
Wed 12:38:00 PM 26.3428 110.2156 138° Southeast  Level Estimated
Wed 12:39:00 PM 26.2650 110.2943 138° Southeast  Level Estimated
Wed 12:40:00 PM 26.1872 110.3729 138° Southeast  Level Estimated
Wed 12:41:00 PM 26.1093 110.4514 138° Southeast  Level Estimated
Wed 12:42:00 PM 26.0314 110.5298 138° Southeast  Level Estimated
Wed 12:43:00 PM 25.9535 110.6081 138° Southeast  Level Estimated
Wed 12:44:00 PM 25.8755 110.6863 138° Southeast  Level Estimated
Wed 12:45:00 PM 25.7974 110.7644 138° Southeast  Level Estimated
Wed 12:46:00 PM 25.7194 110.8424 138° Southeast  Level Estimated
Wed 12:47:00 PM 25.6413 110.9203 138° Southeast  Level Estimated
Wed 12:48:00 PM 25.5631 110.9980 138° Southeast  Level Estimated
Wed 12:49:00 PM 25.4849 111.0757 138° Southeast  Level Estimated
Wed 12:50:00 PM 25.4067 111.1533 138° Southeast  Level Estimated
Wed 12:51:00 PM 25.3284 111.2308 138° Southeast  Level Estimated
Wed 12:52:00 PM 25.2501 111.3082 138° Southeast  Level Estimated
Wed 12:53:00 PM 25.1717 111.3855 138° Southeast  Level Estimated
Wed 12:54:00 PM 25.0933 111.4626 138° Southeast  Level Estimated
Wed 12:55:00 PM 25.0149 111.5397 138° Southeast  Level Estimated
Wed 12:56:00 PM 24.9364 111.6167 138° Southeast  Level Estimated
Wed 12:57:00 PM 24.8579 111.6936 138° Southeast  Level Estimated
Wed 12:58:00 PM 24.7793 111.7703 138° Southeast  Level Estimated
Wed 12:59:00 PM 24.7007 111.8470 138° Southeast  Level Estimated
Wed 01:00:00 PM 24.6221 111.9236 138° Southeast  Level Estimated
Wed 01:01:00 PM 24.5434 112.0001 139° Southeast  Level Estimated
Wed 01:02:00 PM 24.4647 112.0765 139° Southeast  Level Estimated
Wed 01:03:00 PM 24.3859 112.1528 139° Southeast  Level Estimated
Wed 01:04:00 PM 24.3071 112.2290 139° Southeast  Level Estimated
Wed 01:05:00 PM 24.2283 112.3051 139° Southeast  Level Estimated
Wed 01:06:00 PM 24.1494 112.3812 139° Southeast  Level Estimated
Wed 01:07:00 PM 24.0705 112.4571 139° Southeast  Level Estimated
Wed 01:08:00 PM 23.9916 112.5329 139° Southeast  Level Estimated
Wed 01:09:00 PM 23.9126 112.6087 139° Southeast  Level Estimated
Wed 01:10:00 PM 23.8336 112.6843 139° Southeast  Level Estimated
Wed 01:11:00 PM 23.7545 112.7598 139° Southeast  Level Estimated
Wed 01:12:00 PM 23.6754 112.8353 139° Southeast  Level Estimated
Wed 01:13:00 PM 23.5963 112.9107 139° Southeast  Level Estimated
Wed 01:14:00 PM 23.5172 112.9860 139° Southeast  Level Estimated
Wed 01:15:00 PM 23.4380 113.0611 139° Southeast  Level Estimated
Wed 01:16:00 PM 23.3587 113.1363 139° Southeast  Level Estimated
Wed 01:17:00 PM 23.2795 113.2113 139° Southeast  Level Estimated
Wed 01:18:00 PM 23.2001 113.2862 139° Southeast  Level Estimated
Wed 01:19:00 PM 23.1208 113.3610 139° Southeast  Level Estimated
Wed 01:20:00 PM 23.0414 113.4358 139° Southeast  Level Estimated
Wed 01:21:00 PM 22.9620 113.5104 139° Southeast  Level Estimated
Wed 01:22:00 PM 22.8826 113.5850 139° Southeast  Level Estimated
Wed 01:23:00 PM 22.8031 113.6595 139° Southeast  Level Estimated
Wed 01:24:00 PM 22.7236 113.7338 139° Southeast  Level Estimated
Wed 01:25:00 PM 22.6440 113.8082 139° Southeast  Level Estimated
Wed 01:26:00 PM 22.6395 113.8124 139° Southeast  Level Estimated
Wed 01:27:00 PM 22.6395 113.8124 25° Northeast  Level Estimated
Wed 01:28:00 PM 22.6395 113.8124 25° Northeast  Level Estimated
Wed 01:29:00 PM 22.6395 113.8124 25° Northeast  Level Estimated
Wed 01:30:00 PM 22.6395 113.8124 25° Northeast  Level Estimated
Wed 01:31:00 PM 22.6395 113.8124 25° Northeast  Level Estimated
Wed 01:32:00 PM 22.6395 113.8124 25° Northeast  Level Estimated
Wed 01:33:00 PM 22.6395 113.8124 25° Northeast  Level Estimated
Wed 01:34:00 PM 22.6395 113.8124 25° Northeast  Level Estimated
Wed 01:35:00 PM 22.6395 113.8124 25° Northeast  Level Estimated
Wed 01:36:00 PM 22.6395 113.8124 25° Northeast  Level Estimated
Wed 01:37:00 PM 22.6395 113.8124 25° Northeast  Level Estimated
Wed 01:38:00 PM 22.6395 113.8124 25° Northeast  Level Estimated
Wed 01:39:00 PM 22.6395 113.8124 25° Northeast  Level Estimated
Wed 01:40:00 PM 22.6395 113.8124 25° Northeast  Level Estimated
Wed 01:41:00 PM 22.6395 113.8124 25° Northeast  Level Estimated

Login

Don't have an account? Register now (free) for customized features, flight alerts, and more!